createdAt,value
2018-03-07T00:00:41.917Z,2.08
2018-03-07T00:03:10.352Z,2.08
2018-03-07T00:05:38.841Z,2.07
2018-03-07T00:08:07.324Z,2.06
2018-03-07T00:10:35.770Z,2.02
2018-03-07T00:13:04.269Z,1.99
2018-03-07T00:15:33.019Z,2.00
2018-03-07T00:18:01.471Z,1.99
2018-03-07T00:20:29.981Z,2.01
2018-03-07T00:22:58.453Z,2.02
2018-03-07T00:25:26.879Z,1.98
2018-03-07T00:27:55.372Z,2.06
2018-03-07T00:30:23.822Z,2.03
2018-03-07T00:32:52.273Z,2.01
2018-03-07T00:35:20.757Z,1.99
2018-03-07T00:37:49.214Z,2.04
2018-03-07T00:40:17.666Z,2.10
2018-03-07T00:42:46.145Z,2.05
2018-03-07T00:45:14.612Z,2.05
2018-03-07T00:47:43.032Z,2.05
2018-03-07T00:50:11.506Z,1.98
2018-03-07T00:52:39.991Z,2.00
2018-03-07T00:55:08.442Z,2.05
2018-03-07T00:57:36.923Z,2.04
2018-03-07T01:00:05.422Z,2.03
2018-03-07T01:02:33.879Z,2.09
2018-03-07T01:05:02.367Z,2.06
2018-03-07T01:07:30.802Z,2.02
2018-03-07T01:09:59.244Z,2.05
2018-03-07T01:12:27.721Z,2.02
2018-03-07T01:14:56.183Z,2.04
2018-03-07T01:17:24.636Z,2.06
2018-03-07T01:19:53.135Z,2.02
2018-03-07T01:22:21.738Z,1.98
2018-03-07T01:24:50.171Z,2.00
2018-03-07T01:27:18.646Z,2.00
2018-03-07T01:29:47.076Z,1.95
2018-03-07T01:32:15.509Z,1.91
2018-03-07T01:34:44.005Z,1.99
2018-03-07T01:37:12.440Z,1.99
2018-03-07T01:39:40.878Z,1.91
2018-03-07T01:42:09.367Z,1.94
2018-03-07T01:44:37.803Z,1.83
2018-03-07T01:47:06.240Z,1.90
2018-03-07T01:49:34.718Z,1.83
2018-03-07T01:52:03.146Z,1.88
2018-03-07T01:54:31.598Z,1.87
2018-03-07T01:57:00.073Z,1.89
2018-03-07T01:59:28.536Z,1.87
2018-03-07T02:01:56.991Z,1.83
2018-03-07T02:04:25.483Z,1.83
2018-03-07T02:06:53.932Z,1.88
2018-03-07T02:09:22.376Z,1.89
2018-03-07T02:11:50.851Z,1.83
2018-03-07T02:14:19.287Z,1.88
2018-03-07T02:16:47.754Z,1.77
2018-03-07T02:19:16.244Z,1.78
2018-03-07T02:21:44.705Z,1.81
2018-03-07T02:24:13.164Z,1.80
2018-03-07T02:26:41.650Z,1.78
2018-03-07T02:29:10.111Z,1.77
2018-03-07T02:31:38.572Z,1.77
2018-03-07T02:34:07.053Z,1.78
2018-03-07T02:36:35.553Z,1.80
2018-03-07T02:39:04.064Z,1.74
2018-03-07T02:41:32.568Z,1.65
2018-03-07T02:44:01.034Z,1.63
2018-03-07T02:46:29.491Z,1.61
2018-03-07T02:48:57.994Z,1.60
2018-03-07T02:51:26.418Z,1.56
2018-03-07T02:53:54.909Z,1.54
2018-03-07T02:56:23.383Z,1.52
2018-03-07T02:58:51.827Z,1.46
2018-03-07T03:01:20.262Z,1.48
2018-03-07T03:03:48.769Z,1.51
2018-03-07T03:06:17.192Z,1.45
2018-03-07T03:08:45.618Z,1.47
2018-03-07T03:11:14.131Z,1.45
2018-03-07T03:13:42.581Z,1.45
2018-03-07T03:16:11.011Z,1.43
2018-03-07T03:18:39.513Z,1.44
2018-03-07T03:21:07.950Z,1.41
2018-03-07T03:23:36.401Z,1.47
2018-03-07T03:26:04.918Z,1.44
2018-03-07T03:28:33.372Z,1.49
2018-03-07T03:31:01.838Z,1.46
2018-03-07T03:33:30.314Z,1.44
2018-03-07T03:35:58.785Z,1.38
2018-03-07T03:38:27.225Z,1.45
2018-03-07T03:40:55.705Z,1.41
2018-03-07T03:43:24.146Z,1.32
2018-03-07T03:45:52.594Z,1.39
2018-03-07T03:48:21.069Z,1.41
2018-03-07T03:50:49.529Z,1.37
2018-03-07T03:53:17.993Z,1.39
2018-03-07T03:55:46.499Z,1.33
2018-03-07T03:58:14.938Z,1.31
2018-03-07T04:00:43.404Z,1.31
2018-03-07T04:03:11.895Z,1.19
2018-03-07T04:05:40.349Z,1.25
2018-03-07T04:08:08.799Z,1.21
2018-03-07T04:10:37.288Z,1.22
2018-03-07T04:13:05.735Z,1.23
2018-03-07T04:15:34.450Z,1.20
2018-03-07T04:18:02.949Z,1.21
2018-03-07T04:20:31.407Z,1.18
2018-03-07T04:22:59.862Z,1.17
2018-03-07T04:25:28.361Z,1.18
2018-03-07T04:27:57.043Z,1.20
2018-03-07T04:30:25.500Z,1.13
2018-03-07T04:32:54.106Z,1.15
2018-03-07T04:35:22.553Z,1.07
2018-03-07T04:37:51.006Z,1.02
2018-03-07T04:40:19.489Z,0.98
2018-03-07T04:42:48.026Z,1.03
2018-03-07T04:45:16.481Z,1.02
2018-03-07T04:47:44.978Z,0.94
2018-03-07T04:50:13.426Z,0.92
2018-03-07T04:52:41.880Z,0.92
2018-03-07T04:55:10.371Z,0.89
2018-03-07T04:57:38.806Z,0.85
2018-03-07T05:00:07.250Z,0.85
2018-03-07T05:02:35.852Z,0.91
2018-03-07T05:05:04.361Z,0.93
2018-03-07T05:07:32.821Z,0.90
2018-03-07T05:10:01.636Z,0.94
2018-03-07T05:12:30.056Z,0.92
2018-03-07T05:14:58.497Z,0.87
2018-03-07T05:17:26.961Z,0.86
2018-03-07T05:19:55.390Z,0.86
2018-03-07T05:22:23.836Z,0.89
2018-03-07T05:24:52.310Z,0.85
2018-03-07T05:27:20.761Z,0.85
2018-03-07T05:29:49.205Z,0.83
2018-03-07T05:32:17.713Z,0.81
2018-03-07T05:34:46.159Z,0.78
2018-03-07T05:37:14.601Z,0.80
2018-03-07T05:39:43.102Z,0.85
2018-03-07T05:42:11.526Z,0.84
2018-03-07T05:44:39.959Z,0.85
2018-03-07T05:47:08.468Z,0.87
2018-03-07T05:49:36.895Z,0.83
2018-03-07T05:52:05.343Z,0.82
2018-03-07T05:54:33.811Z,0.87
2018-03-07T05:57:02.245Z,0.88
2018-03-07T05:59:30.679Z,0.83
2018-03-07T06:01:59.149Z,0.81
2018-03-07T06:04:27.594Z,0.80
2018-03-07T06:06:56.081Z,0.77
2018-03-07T06:09:24.874Z,0.81
2018-03-07T06:11:53.339Z,0.87
2018-03-07T06:14:21.777Z,0.81
2018-03-07T06:16:50.298Z,0.88
2018-03-07T06:19:19.031Z,0.81
2018-03-07T06:21:47.494Z,0.82
2018-03-07T06:24:15.970Z,0.83
2018-03-07T06:26:44.403Z,0.85
2018-03-07T06:29:12.843Z,0.86
2018-03-07T06:31:41.322Z,0.87
2018-03-07T06:34:09.818Z,0.88
2018-03-07T06:36:38.290Z,0.92
2018-03-07T06:39:06.795Z,0.93
2018-03-07T06:41:35.226Z,0.92
2018-03-07T06:44:03.688Z,0.97
2018-03-07T06:46:32.171Z,1.03
2018-03-07T06:49:00.597Z,1.07
2018-03-07T06:51:29.053Z,1.09
2018-03-07T06:53:57.533Z,1.12
2018-03-07T06:56:25.964Z,1.15
2018-03-07T06:58:54.398Z,1.22
2018-03-07T07:01:22.874Z,1.23
2018-03-07T07:03:51.302Z,1.24
2018-03-07T07:06:19.748Z,1.28
2018-03-07T07:08:48.230Z,1.31
2018-03-07T07:11:16.674Z,1.32
2018-03-07T07:13:45.136Z,1.34
2018-03-07T07:16:13.652Z,1.35
2018-03-07T07:18:42.087Z,1.39
2018-03-07T07:21:10.535Z,1.46
2018-03-07T07:23:39.039Z,1.52
2018-03-07T07:26:07.481Z,1.55
2018-03-07T07:28:35.908Z,1.60
2018-03-07T07:31:04.380Z,1.65
2018-03-07T07:33:32.825Z,1.71
2018-03-07T07:36:01.257Z,1.73
2018-03-07T07:38:29.717Z,1.66
2018-03-07T07:40:58.162Z,1.74
2018-03-07T07:43:26.619Z,1.76
2018-03-07T07:45:55.100Z,1.73
2018-03-07T07:48:23.514Z,1.82
2018-03-07T07:50:51.970Z,1.92
2018-03-07T07:53:20.450Z,1.94
2018-03-07T07:55:48.893Z,1.96
2018-03-07T07:58:17.338Z,2.01
2018-03-07T08:00:45.848Z,2.03
2018-03-07T08:03:14.304Z,2.05
2018-03-07T08:05:42.750Z,2.15
2018-03-07T08:08:11.260Z,2.26
2018-03-07T08:10:39.706Z,2.32
2018-03-07T08:13:08.154Z,2.42
2018-03-07T08:15:36.637Z,2.52
2018-03-07T08:18:05.091Z,2.46
2018-03-07T08:20:33.556Z,2.50
2018-03-07T08:23:02.064Z,2.53
2018-03-07T08:25:30.525Z,2.57
2018-03-07T08:27:58.977Z,2.62
2018-03-07T08:30:27.465Z,2.73
2018-03-07T08:32:55.931Z,-146.80
2018-03-07T08:35:24.440Z,2.92
2018-03-07T08:37:52.947Z,-146.80
2018-03-07T08:40:21.416Z,2.97
2018-03-07T08:42:49.850Z,2.95
2018-03-07T08:45:18.339Z,-146.80
2018-03-07T08:47:46.819Z,-146.80
2018-03-07T08:50:15.297Z,-146.80
2018-03-07T08:52:43.783Z,2.90
2018-03-07T08:55:12.221Z,3.03
2018-03-07T08:57:40.695Z,-146.80
2018-03-07T09:00:09.251Z,-146.80
2018-03-07T09:02:37.715Z,-146.80
2018-03-07T09:05:06.190Z,-146.80
2018-03-07T09:07:34.737Z,-146.80
2018-03-07T09:10:03.221Z,-146.80
2018-03-07T09:12:31.702Z,-146.80
2018-03-07T09:15:00.208Z,-146.80
2018-03-07T09:17:28.670Z,3.52
2018-03-07T09:19:57.144Z,-146.80
2018-03-07T09:22:25.700Z,-146.80
2018-03-07T09:24:54.173Z,-146.80
2018-03-07T09:27:22.643Z,-146.80
2018-03-07T09:29:51.167Z,4.55
2018-03-07T09:32:19.650Z,-146.80
2018-03-07T09:34:48.130Z,-146.80
2018-03-07T09:37:16.622Z,4.71
2018-03-07T09:39:45.065Z,4.86
2018-03-07T09:42:13.537Z,-146.80
2018-03-07T09:44:42.040Z,5.02
2018-03-07T09:47:10.570Z,-146.80
2018-03-07T09:49:39.057Z,-146.80
2018-03-07T09:52:07.579Z,-146.80
2018-03-07T09:54:36.071Z,-146.80
2018-03-07T09:57:04.513Z,5.76
2018-03-07T09:59:33.070Z,-146.80
2018-03-07T10:02:01.570Z,-146.80
2018-03-07T10:04:30.053Z,-146.80
2018-03-07T10:06:58.585Z,-146.80
2018-03-07T10:09:27.069Z,-146.80
2018-03-07T10:11:55.537Z,-146.80
2018-03-07T10:14:24.065Z,-146.80
2018-03-07T10:16:52.575Z,-146.80
2018-03-07T10:19:21.051Z,6.82
2018-03-07T10:21:49.555Z,6.73
2018-03-07T10:24:18.027Z,-146.80
2018-03-07T10:26:46.495Z,-146.80
2018-03-07T10:29:14.998Z,6.75
2018-03-07T10:31:43.449Z,6.85
2018-03-07T10:34:11.880Z,6.91
2018-03-07T10:36:40.399Z,6.94
2018-03-07T10:39:08.884Z,-146.80
2018-03-07T10:41:37.350Z,7.00
2018-03-07T10:44:05.834Z,7.21
2018-03-07T10:46:34.292Z,7.08
2018-03-07T10:49:02.727Z,7.03
2018-03-07T10:51:31.222Z,6.87
2018-03-07T10:53:59.668Z,6.94
2018-03-07T10:56:28.117Z,6.73
2018-03-07T10:58:56.611Z,6.54
2018-03-07T11:01:25.064Z,6.44
2018-03-07T11:03:53.495Z,6.62
2018-03-07T11:06:22.000Z,6.62
2018-03-07T11:08:50.485Z,6.65
2018-03-07T11:11:18.945Z,6.70
2018-03-07T11:13:47.457Z,6.94
2018-03-07T11:16:15.934Z,7.06
2018-03-07T11:18:44.379Z,6.94
2018-03-07T11:21:12.846Z,6.97
2018-03-07T11:23:41.286Z,6.94
2018-03-07T11:26:09.739Z,6.75
2018-03-07T11:28:38.204Z,6.88
2018-03-07T11:31:06.648Z,6.94
2018-03-07T11:33:35.095Z,6.88
2018-03-07T11:36:03.624Z,6.90
2018-03-07T11:38:32.057Z,6.86
2018-03-07T11:41:00.504Z,7.00
2018-03-07T11:43:29.039Z,6.78
2018-03-07T11:45:57.481Z,6.76
2018-03-07T11:48:25.914Z,6.68
2018-03-07T11:50:54.408Z,6.67
2018-03-07T11:53:22.869Z,6.69
2018-03-07T11:55:51.308Z,6.60
2018-03-07T11:58:19.778Z,6.55
2018-03-07T12:00:48.207Z,6.53
2018-03-07T12:03:16.646Z,6.49
2018-03-07T12:05:45.132Z,6.32
2018-03-07T12:08:13.577Z,6.24
2018-03-07T12:10:42.037Z,6.27
2018-03-07T12:13:10.536Z,6.24
2018-03-07T12:15:38.970Z,6.27
2018-03-07T12:18:07.430Z,6.32
2018-03-07T12:20:35.911Z,6.34
2018-03-07T12:23:04.388Z,6.30
2018-03-07T12:25:32.871Z,6.27
2018-03-07T12:28:01.354Z,6.28
2018-03-07T12:30:29.810Z,6.22
2018-03-07T12:32:58.269Z,6.15
2018-03-07T12:35:26.743Z,6.19
2018-03-07T12:37:55.170Z,6.16
2018-03-07T12:40:23.614Z,6.12
2018-03-07T12:42:52.111Z,6.18
2018-03-07T12:45:20.562Z,6.18
2018-03-07T12:47:48.998Z,6.22
2018-03-07T12:50:17.485Z,6.23
2018-03-07T12:52:45.942Z,6.18
2018-03-07T12:55:14.386Z,6.13
2018-03-07T12:57:42.888Z,6.06
2018-03-07T13:00:11.365Z,5.99
2018-03-07T13:02:39.827Z,5.93
2018-03-07T13:05:08.324Z,5.91
2018-03-07T13:07:36.758Z,5.84
2018-03-07T13:10:05.194Z,5.82
2018-03-07T13:12:33.722Z,5.78
2018-03-07T13:15:02.174Z,5.86
2018-03-07T13:17:30.618Z,5.85
2018-03-07T13:19:59.107Z,5.74
2018-03-07T13:22:27.557Z,5.77
2018-03-07T13:24:55.988Z,5.89
2018-03-07T13:27:24.463Z,5.90
2018-03-07T13:29:52.910Z,5.94
2018-03-07T13:32:21.349Z,6.03
2018-03-07T13:34:49.814Z,6.07
2018-03-07T13:37:18.245Z,6.15
2018-03-07T13:39:46.674Z,6.30
2018-03-07T13:42:15.165Z,6.48
2018-03-07T13:44:43.595Z,6.68
2018-03-07T13:47:12.032Z,7.12
2018-03-07T13:49:40.503Z,7.48
2018-03-07T13:52:08.935Z,7.78
2018-03-07T13:54:37.378Z,7.99
2018-03-07T13:57:05.922Z,8.32
2018-03-07T13:59:34.351Z,8.63
2018-03-07T14:02:02.802Z,8.80
2018-03-07T14:04:31.298Z,8.88
2018-03-07T14:07:00.312Z,9.13
2018-03-07T14:09:28.739Z,9.26
2018-03-07T14:11:57.217Z,9.26
2018-03-07T14:14:25.682Z,9.25
2018-03-07T14:16:54.170Z,9.22
2018-03-07T14:19:22.659Z,9.15
2018-03-07T14:21:51.126Z,9.28
2018-03-07T14:24:19.571Z,9.47
2018-03-07T14:26:48.064Z,9.57
2018-03-07T14:29:16.487Z,9.84
2018-03-07T14:31:44.917Z,10.04
2018-03-07T14:34:13.417Z,10.17
2018-03-07T14:36:41.887Z,10.29
2018-03-07T14:39:10.333Z,10.33
2018-03-07T14:41:38.840Z,10.47
2018-03-07T14:44:07.278Z,10.55
2018-03-07T14:46:35.758Z,10.59
2018-03-07T14:49:04.246Z,10.62
2018-03-07T14:51:32.709Z,10.65
2018-03-07T14:54:01.154Z,10.60
2018-03-07T14:56:29.650Z,10.51
2018-03-07T14:58:58.092Z,10.48
2018-03-07T15:01:26.536Z,10.53
2018-03-07T15:03:55.035Z,10.63
2018-03-07T15:06:23.503Z,10.49
2018-03-07T15:08:51.972Z,10.55
2018-03-07T15:11:20.462Z,10.50
2018-03-07T15:13:48.898Z,10.40
2018-03-07T15:16:17.330Z,10.25
2018-03-07T15:18:45.803Z,10.16
2018-03-07T15:21:14.285Z,10.01
2018-03-07T15:23:42.706Z,9.90
2018-03-07T15:26:11.191Z,9.74
2018-03-07T15:28:39.619Z,9.70
2018-03-07T15:31:08.030Z,9.66
2018-03-07T15:33:36.519Z,9.52
2018-03-07T15:36:04.930Z,9.46
2018-03-07T15:38:33.369Z,9.31
2018-03-07T15:41:01.875Z,9.27
2018-03-07T15:43:30.321Z,9.19
2018-03-07T15:45:58.777Z,9.08
2018-03-07T15:48:27.281Z,8.99
2018-03-07T15:50:55.719Z,8.88
2018-03-07T15:53:24.147Z,8.81
2018-03-07T15:55:52.627Z,8.69
2018-03-07T15:58:21.048Z,8.61
2018-03-07T16:00:49.485Z,8.56
2018-03-07T16:03:17.959Z,8.47
2018-03-07T16:05:46.387Z,8.31
2018-03-07T16:08:14.833Z,8.21
2018-03-07T16:10:43.319Z,8.10
2018-03-07T16:13:11.766Z,8.04
2018-03-07T16:15:40.198Z,7.93
2018-03-07T16:18:08.678Z,7.90
2018-03-07T16:20:37.110Z,7.87
2018-03-07T16:23:05.561Z,7.82
2018-03-07T16:25:34.061Z,7.76
2018-03-07T16:28:02.503Z,7.71
2018-03-07T16:30:30.963Z,7.62
2018-03-07T16:32:59.478Z,7.50
2018-03-07T16:35:27.928Z,7.39
2018-03-07T16:37:56.358Z,7.30
2018-03-07T16:40:24.853Z,7.25
2018-03-07T16:42:53.304Z,7.18
2018-03-07T16:45:21.743Z,7.03
2018-03-07T16:47:50.206Z,7.00
2018-03-07T16:50:18.657Z,6.90
2018-03-07T16:52:47.096Z,6.78
2018-03-07T16:55:15.577Z,6.65
2018-03-07T16:57:44.028Z,6.52
2018-03-07T17:00:12.489Z,6.47
2018-03-07T17:02:40.970Z,6.55
2018-03-07T17:05:09.407Z,6.54
2018-03-07T17:07:37.844Z,6.53
2018-03-07T17:10:06.374Z,6.47
2018-03-07T17:12:34.808Z,6.29
2018-03-07T17:15:03.252Z,6.26
2018-03-07T17:17:31.734Z,6.29
2018-03-07T17:20:00.184Z,6.23
2018-03-07T17:22:28.638Z,6.18
2018-03-07T17:24:57.135Z,6.17
2018-03-07T17:27:25.580Z,6.14
2018-03-07T17:29:54.032Z,6.10
2018-03-07T17:32:22.617Z,6.14
2018-03-07T17:34:51.046Z,6.13
2018-03-07T17:37:19.490Z,6.07
2018-03-07T17:39:48.003Z,6.01
2018-03-07T17:44:58.464Z,5.92
2018-03-07T17:47:26.899Z,5.82
2018-03-07T17:49:55.389Z,5.76
2018-03-07T17:52:23.855Z,5.71
2018-03-07T17:54:52.294Z,5.70
2018-03-07T17:57:20.730Z,5.71
2018-03-07T17:59:49.202Z,5.71
2018-03-07T18:02:17.638Z,5.64
2018-03-07T18:04:46.069Z,5.60
2018-03-07T18:07:14.570Z,5.56
2018-03-07T18:09:42.998Z,5.45
2018-03-07T18:12:11.426Z,5.35
2018-03-07T18:14:39.930Z,5.44
2018-03-07T18:17:08.363Z,5.46
2018-03-07T18:19:36.796Z,5.49
2018-03-07T18:22:05.284Z,5.46
2018-03-07T18:24:33.736Z,5.48
2018-03-07T18:27:02.205Z,5.46
2018-03-07T18:29:30.692Z,5.43
2018-03-07T18:31:59.132Z,5.46
2018-03-07T18:34:27.577Z,5.46
2018-03-07T18:36:56.047Z,5.46
2018-03-07T18:39:24.488Z,5.44
2018-03-07T18:41:52.940Z,5.43
2018-03-07T18:44:21.558Z,5.36
2018-03-07T18:46:49.999Z,5.32
2018-03-07T18:49:18.423Z,5.32
2018-03-07T18:51:46.922Z,5.33
2018-03-07T18:54:15.367Z,5.31
2018-03-07T18:56:43.818Z,5.25
2018-03-07T18:59:12.318Z,5.29
2018-03-07T19:01:40.788Z,5.27
2018-03-07T19:04:09.214Z,5.18
2018-03-07T19:06:37.709Z,5.15
2018-03-07T19:09:06.174Z,5.20
2018-03-07T19:11:34.594Z,5.20
2018-03-07T19:14:03.085Z,5.19
2018-03-07T19:16:31.549Z,5.12
2018-03-07T19:18:59.981Z,5.14
2018-03-07T19:21:28.451Z,5.10
2018-03-07T19:23:56.889Z,5.13
2018-03-07T19:26:25.316Z,5.21
2018-03-07T19:28:53.777Z,5.13
2018-03-07T19:31:22.225Z,5.06
2018-03-07T19:33:50.676Z,5.06
2018-03-07T19:36:19.249Z,5.06
2018-03-07T19:38:47.680Z,5.06
2018-03-07T19:41:16.135Z,5.04
2018-03-07T19:43:44.607Z,5.04
2018-03-07T19:46:13.049Z,4.99
2018-03-07T19:48:41.494Z,5.02
2018-03-07T19:51:09.986Z,5.00
2018-03-07T19:53:38.429Z,5.00
2018-03-07T19:58:58.772Z,4.96
2018-03-07T20:01:27.214Z,4.99
2018-03-07T20:03:55.642Z,4.98
2018-03-07T20:06:24.141Z,4.93
2018-03-07T20:08:52.579Z,4.94
2018-03-07T20:11:21.058Z,4.86
2018-03-07T20:13:49.524Z,4.91
2018-03-07T20:16:17.984Z,4.88
2018-03-07T20:18:46.427Z,4.99
2018-03-07T20:24:06.061Z,4.76
2018-03-07T20:26:34.507Z,4.80
2018-03-07T20:29:02.960Z,4.77
2018-03-07T20:31:31.483Z,4.71
2018-03-07T20:33:59.916Z,4.73
2018-03-07T20:36:28.372Z,4.70
2018-03-07T20:38:56.830Z,4.70
2018-03-07T20:41:25.913Z,4.69
2018-03-07T20:43:54.342Z,4.79
2018-03-07T20:46:22.831Z,4.68
2018-03-07T20:48:51.345Z,4.63
2018-03-07T20:51:19.795Z,4.62
2018-03-07T20:53:48.307Z,4.64
2018-03-07T20:56:16.746Z,4.57
2018-03-07T20:58:45.191Z,4.43
2018-03-07T21:01:13.708Z,4.43
2018-03-07T21:03:42.172Z,4.38
2018-03-07T21:06:10.618Z,4.38
2018-03-07T21:08:39.134Z,4.40
2018-03-07T21:11:07.562Z,4.38
2018-03-07T21:13:36.013Z,4.36
2018-03-07T21:16:04.542Z,4.32
2018-03-07T21:18:32.989Z,4.28
2018-03-07T21:21:01.439Z,4.18
2018-03-07T21:23:29.945Z,4.25
2018-03-07T21:25:58.392Z,4.24
2018-03-07T21:28:26.844Z,4.28
2018-03-07T21:30:55.323Z,4.30
2018-03-07T21:33:23.777Z,4.28
2018-03-07T21:35:52.245Z,4.29
2018-03-07T21:38:20.738Z,4.24
2018-03-07T21:40:49.330Z,4.27
2018-03-07T21:43:17.771Z,4.27
2018-03-07T21:45:46.288Z,4.30
2018-03-07T21:48:14.742Z,4.33
2018-03-07T21:50:43.665Z,4.35
2018-03-07T21:53:12.177Z,4.34
2018-03-07T21:55:40.641Z,4.33
2018-03-07T21:58:09.101Z,4.39
2018-03-07T22:00:37.592Z,4.37
2018-03-07T22:03:06.033Z,4.37
2018-03-07T22:05:34.468Z,4.33
2018-03-07T22:08:02.969Z,4.30
2018-03-07T22:10:31.416Z,4.31
2018-03-07T22:12:59.898Z,4.26
2018-03-07T22:15:28.397Z,4.28
2018-03-07T22:17:56.861Z,4.31
2018-03-07T22:20:25.297Z,4.27
2018-03-07T22:22:53.796Z,4.21
2018-03-07T22:25:22.243Z,4.18
2018-03-07T22:27:50.699Z,4.22
2018-03-07T22:30:19.165Z,4.22
2018-03-07T22:32:47.609Z,4.27
2018-03-07T22:35:16.052Z,4.39
2018-03-07T22:37:44.568Z,4.35
2018-03-07T22:40:13.001Z,4.35
2018-03-07T22:42:41.438Z,4.40
2018-03-07T22:45:09.917Z,4.70
2018-03-07T22:47:38.346Z,4.63
2018-03-07T22:50:06.776Z,4.78
2018-03-07T22:52:35.277Z,4.81
2018-03-07T22:55:03.710Z,5.02
2018-03-07T22:57:32.130Z,5.04
2018-03-07T23:00:00.615Z,4.95
2018-03-07T23:02:29.038Z,4.89
2018-03-07T23:04:57.506Z,4.88
2018-03-07T23:07:26.001Z,4.87
2018-03-07T23:09:54.431Z,4.84
2018-03-07T23:12:22.851Z,4.83
2018-03-07T23:14:51.352Z,4.80
2018-03-07T23:17:19.783Z,4.78
2018-03-07T23:19:48.216Z,4.77
2018-03-07T23:22:16.690Z,4.75
2018-03-07T23:24:45.125Z,4.74
2018-03-07T23:27:13.548Z,4.71
2018-03-07T23:29:42.010Z,4.68
2018-03-07T23:32:10.434Z,4.69
2018-03-07T23:34:38.884Z,-146.80
2018-03-07T23:37:07.375Z,-146.80
2018-03-07T23:39:35.836Z,-146.80
2018-03-07T23:42:04.293Z,5.21
2018-03-07T23:44:32.768Z,5.27
2018-03-07T23:47:01.199Z,5.27
2018-03-07T23:49:29.654Z,-146.80
2018-03-07T23:51:58.171Z,-146.80
2018-03-07T23:54:26.655Z,-146.80
2018-03-07T23:56:55.129Z,-146.80
2018-03-07T23:59:23.646Z,-146.80
